Time;durP1;ratioP1;P1;durP2;ratioP2;P2;SDS_P1;SDS_P2;PMS_P1;PMS_P2;Temp;Humidity;BMP_temperature;BMP_pressure;BME280_temperature;BME280_humidity;BME280_pressure;Samples;Min_cycle;Max_cycle;Signal;HPM_P1;HPM_P2
2022/07/18 00:02:05;;;;;;;1.48;0.95;;;20.90;53.70;;;;;;5051800;28;20171;-65
2022/07/18 00:04:31;;;;;;;1.30;0.70;;;20.90;53.90;;;;;;5056971;28;20040;-65
2022/07/18 00:06:57;;;;;;;0.88;0.50;;;20.80;53.90;;;;;;5056913;28;20041;-64
2022/07/18 00:09:23;;;;;;;1.65;0.82;;;20.80;54.00;;;;;;5053576;28;20064;-65
2022/07/18 00:11:50;;;;;;;0.82;0.50;;;20.80;54.20;;;;;;5061499;28;20028;-69
2022/07/18 00:14:17;;;;;;;1.33;0.90;;;20.80;54.30;;;;;;5066969;28;20017;-69
2022/07/18 00:16:43;;;;;;;0.60;0.60;;;20.70;54.30;;;;;;5040117;28;20396;-68
2022/07/18 00:19:09;;;;;;;0.47;0.40;;;20.70;54.20;;;;;;5058680;28;20025;-69
2022/07/18 00:21:34;;;;;;;1.17;0.65;;;20.70;54.20;;;;;;5058969;28;20041;-68
2022/07/18 00:24:01;;;;;;;0.40;0.40;;;20.60;54.30;;;;;;5046801;28;20573;-68
2022/07/18 00:26:27;;;;;;;0.50;0.50;;;20.60;54.40;;;;;;5047702;28;20033;-68
2022/07/18 00:28:53;;;;;;;0.95;0.77;;;20.60;54.50;;;;;;5048955;28;20045;-65
2022/07/18 00:31:19;;;;;;;1.83;1.38;;;20.60;54.50;;;;;;5056959;28;20039;-67
2022/07/18 00:33:45;;;;;;;0.75;0.75;;;20.50;54.50;;;;;;5048069;28;20052;-68
2022/07/18 00:36:11;;;;;;;1.20;1.00;;;20.50;54.50;;;;;;5060648;28;20250;-68
2022/07/18 00:38:37;;;;;;;0.65;0.65;;;20.40;54.60;;;;;;5055187;28;20024;-68
2022/07/18 00:41:03;;;;;;;1.48;0.75;;;20.40;54.80;;;;;;5068916;28;20617;-68
2022/07/18 00:43:29;;;;;;;1.50;0.90;;;20.40;55.00;;;;;;5053713;28;20036;-64
2022/07/18 00:45:54;;;;;;;0.63;0.63;;;20.30;55.00;;;;;;5048113;28;20051;-65
2022/07/18 00:48:20;;;;;;;0.60;0.60;;;20.30;55.00;;;;;;5050775;28;20032;-66
2022/07/18 00:50:47;;;;;;;2.47;0.98;;;20.30;55.10;;;;;;5060271;28;20124;-65
2022/07/18 00:53:12;;;;;;;0.73;0.73;;;20.30;55.10;;;;;;5051971;28;20565;-65
2022/07/18 00:55:40;;;;;;;0.80;0.63;;;20.20;55.20;;;;;;5055105;28;20032;-65
2022/07/18 00:58:07;;;;;;;0.93;0.60;;;20.20;55.30;;;;;;5057076;28;20060;-65
2022/07/18 01:03:17;;;;;;;1.67;0.68;;;20.10;55.50;;;;;;5063005;28;20434;-65
2022/07/18 01:05:43;;;;;;;0.70;0.70;;;20.10;55.60;;;;;;5049262;28;20041;-68
2022/07/18 01:08:09;;;;;;;1.27;0.90;;;20.00;55.60;;;;;;5060708;28;20044;-68
2022/07/18 01:10:34;;;;;;;1.25;0.68;;;20.00;55.60;;;;;;5050500;28;20048;-69
2022/07/18 01:13:01;;;;;;;1.20;0.80;;;20.00;55.50;;;;;;5050236;28;20025;-65
2022/07/18 01:15:27;;;;;;;1.23;0.70;;;20.00;55.50;;;;;;5056763;28;20036;-68
2022/07/18 01:17:52;;;;;;;1.05;0.77;;;20.00;55.50;;;;;;5047678;28;20035;-69
2022/07/18 01:20:18;;;;;;;0.60;0.60;;;19.90;55.50;;;;;;5065135;28;20640;-65
2022/07/18 01:22:44;;;;;;;0.70;0.70;;;19.90;55.70;;;;;;5062453;28;20032;-65
2022/07/18 01:25:11;;;;;;;1.83;1.17;;;19.90;55.80;;;;;;5055159;28;20041;-65
2022/07/18 01:27:37;;;;;;;1.35;0.73;;;19.90;55.90;;;;;;5042668;28;20046;-65
2022/07/18 01:30:04;;;;;;;1.30;0.80;;;19.80;55.90;;;;;;5053046;28;20094;-68
2022/07/18 01:32:30;;;;;;;0.47;0.47;;;19.80;55.80;;;;;;5059542;28;20032;-69
2022/07/18 01:34:55;;;;;;;1.88;1.23;;;19.80;55.70;;;;;;5067022;28;20090;-68
2022/07/18 01:37:21;;;;;;;1.48;0.75;;;19.80;55.60;;;;;;5062086;28;20410;-68
2022/07/18 01:39:47;;;;;;;1.00;0.65;;;19.80;55.60;;;;;;5067109;28;20422;-68
2022/07/18 01:42:14;;;;;;;1.38;0.55;;;19.80;56.30;;;;;;5066877;28;20052;-68
2022/07/18 01:44:41;;;;;;;0.52;0.47;;;19.70;55.70;;;;;;5061215;28;20464;-68
2022/07/18 01:47:09;;;;;;;1.48;0.93;;;19.70;55.70;;;;;;5055734;28;20063;-68
2022/07/18 01:49:35;;;;;;;1.63;1.30;;;19.70;55.70;;;;;;5061452;28;20031;-69
2022/07/18 01:52:02;;;;;;;0.90;0.75;;;19.70;55.80;;;;;;5067289;28;20032;-68
2022/07/18 01:54:32;;;;;;;1.27;0.95;;;19.60;55.90;;;;;;5049012;28;20068;-68
2022/07/18 01:56:59;;;;;;;7.05;1.00;;;19.60;56.00;;;;;;5051753;28;20195;-68
2022/07/18 01:59:25;;;;;;;1.50;0.70;;;19.60;56.20;;;;;;5045423;28;20029;-69
2022/07/18 02:01:51;;;;;;;0.77;0.60;;;19.50;56.40;;;;;;5044697;28;20079;-65
2022/07/18 02:04:17;;;;;;;0.85;0.85;;;19.50;56.40;;;;;;5054053;28;20037;-68
2022/07/18 02:06:43;;;;;;;0.73;0.73;;;19.50;56.40;;;;;;5055556;28;20024;-68
2022/07/18 02:09:09;;;;;;;1.40;0.68;;;19.50;56.50;;;;;;5051260;28;20029;-68
2022/07/18 02:11:35;;;;;;;0.70;0.60;;;19.40;56.50;;;;;;5060850;28;20144;-68
2022/07/18 02:14:01;;;;;;;0.70;0.70;;;19.40;56.60;;;;;;5057581;28;20036;-68
2022/07/18 02:16:28;;;;;;;1.20;0.75;;;19.40;56.70;;;;;;5054831;28;20025;-69
2022/07/18 02:18:55;;;;;;;1.90;1.48;;;19.40;57.30;;;;;;5041529;28;20048;-68
2022/07/18 02:21:20;;;;;;;3.75;0.85;;;19.40;56.70;;;;;;5060642;28;20544;-69
2022/07/18 02:23:46;;;;;;;0.75;0.75;;;19.30;56.60;;;;;;5057518;28;20029;-65
2022/07/18 02:26:12;;;;;;;0.75;0.73;;;19.30;56.60;;;;;;5059018;28;20017;-65
2022/07/18 02:28:38;;;;;;;1.60;1.00;;;19.30;56.80;;;;;;5056090;28;20036;-65
2022/07/18 02:31:05;;;;;;;0.95;0.88;;;19.20;56.80;;;;;;5049745;28;20637;-68
2022/07/18 02:33:32;;;;;;;1.67;0.70;;;19.20;56.80;;;;;;5063663;28;20028;-65
2022/07/18 02:35:58;;;;;;;1.02;0.93;;;19.20;56.90;;;;;;5044963;28;20110;-65
2022/07/18 02:38:23;;;;;;;2.65;1.00;;;19.20;57.00;;;;;;5050970;28;20028;-66
2022/07/18 02:40:49;;;;;;;0.60;0.60;;;19.10;57.10;;;;;;5054390;28;20078;-65
2022/07/18 02:43:15;;;;;;;0.65;0.52;;;19.10;57.70;;;;;;5046976;28;20033;-68
2022/07/18 02:45:40;;;;;;;1.50;1.10;;;19.10;57.20;;;;;;5048769;28;20047;-65
2022/07/18 02:48:06;;;;;;;2.05;1.08;;;19.10;57.20;;;;;;5049830;28;20026;-66
2022/07/18 02:50:32;;;;;;;0.77;0.60;;;19.00;57.20;;;;;;5062609;28;20455;-69
2022/07/18 02:52:57;;;;;;;1.75;0.95;;;19.00;57.20;;;;;;5062185;28;20040;-68
2022/07/18 02:55:23;;;;;;;0.82;0.60;;;19.00;57.40;;;;;;5054102;28;20047;-69
2022/07/18 02:57:50;;;;;;;1.35;1.13;;;18.90;57.50;;;;;;5049838;28;20026;-69
2022/07/18 03:00:17;;;;;;;1.02;0.90;;;18.90;57.60;;;;;;5058959;28;20028;-69
2022/07/18 03:02:44;;;;;;;0.82;0.80;;;18.80;57.50;;;;;;5065841;28;20080;-65
2022/07/18 03:05:11;;;;;;;0.60;0.60;;;18.80;57.50;;;;;;5053353;28;20016;-65
2022/07/18 03:07:36;;;;;;;1.95;1.05;;;18.80;58.30;;;;;;5051717;28;20130;-68
2022/07/18 03:10:12;;;;;;;0.73;0.47;;;18.80;57.80;;;;;;5049696;28;20037;-69
2022/07/18 03:12:45;;;;;;;0.63;0.60;;;18.80;57.90;;;;;;5058514;28;20037;-69
2022/07/18 03:15:11;;;;;;;0.57;0.57;;;18.70;58.00;;;;;;5063510;28;20028;-69
2022/07/18 03:17:36;;;;;;;0.70;0.65;;;18.70;58.00;;;;;;5060963;28;20044;-69
2022/07/18 03:20:03;;;;;;;1.65;0.90;;;18.70;58.10;;;;;;5065558;28;20114;-69
2022/07/18 03:22:28;;;;;;;1.13;0.80;;;18.70;58.10;;;;;;5063335;28;20617;-69
2022/07/18 03:24:54;;;;;;;0.80;0.80;;;18.60;58.20;;;;;;5059684;28;20032;-69
2022/07/18 03:27:20;;;;;;;0.73;0.70;;;18.60;58.30;;;;;;5059049;28;20043;-69
2022/07/18 03:29:45;;;;;;;1.95;0.90;;;18.50;58.20;;;;;;5056496;28;20713;-69
2022/07/18 03:32:11;;;;;;;1.63;0.90;;;18.50;58.20;;;;;;5063163;28;20586;-65
2022/07/18 03:34:37;;;;;;;1.27;1.08;;;18.50;58.20;;;;;;5055936;28;20484;-68
2022/07/18 03:37:03;;;;;;;1.05;0.90;;;18.50;58.30;;;;;;5056266;28;20048;-69
2022/07/18 03:39:28;;;;;;;1.17;0.60;;;18.50;58.40;;;;;;5050280;28;20056;-69
2022/07/18 03:41:54;;;;;;;2.05;1.05;;;18.50;58.50;;;;;;5064950;28;20040;-69
2022/07/18 03:44:19;;;;;;;1.02;0.60;;;18.40;58.60;;;;;;5059898;28;20039;-65
2022/07/18 03:46:45;;;;;;;0.57;0.57;;;18.50;58.70;;;;;;5063622;28;20033;-65
2022/07/18 03:49:11;;;;;;;0.75;0.57;;;18.40;58.70;;;;;;5061000;28;20047;-66
2022/07/18 03:51:36;;;;;;;1.08;0.82;;;18.40;58.80;;;;;;5062173;28;20051;-65
2022/07/18 03:54:02;;;;;;;0.77;0.60;;;18.40;58.80;;;;;;5054222;28;20036;-66
2022/07/18 03:56:28;;;;;;;1.88;1.17;;;18.40;58.90;;;;;;5030667;28;20116;-66
2022/07/18 03:58:53;;;;;;;1.02;0.80;;;18.40;58.90;;;;;;5054549;28;20120;-66
2022/07/18 04:01:19;;;;;;;1.15;0.85;;;18.40;59.00;;;;;;5054221;28;20036;-66
2022/07/18 04:03:45;;;;;;;0.57;0.50;;;18.40;59.10;;;;;;5055592;28;20055;-66
2022/07/18 04:06:10;;;;;;;0.82;0.43;;;18.40;59.10;;;;;;5060100;28;20150;-65
2022/07/18 04:08:36;;;;;;;1.17;1.02;;;18.40;59.10;;;;;;5056092;28;20542;-69
2022/07/18 04:11:02;;;;;;;0.95;0.80;;;18.40;59.10;;;;;;5055725;28;20063;-69
2022/07/18 04:13:27;;;;;;;1.08;0.80;;;18.40;59.10;;;;;;5043847;28;20033;-69
2022/07/18 04:15:57;;;;;;;0.80;0.80;;;18.40;59.10;;;;;;5047128;28;20037;-66
2022/07/18 04:18:23;;;;;;;1.25;0.63;;;18.40;59.30;;;;;;5058136;28;20033;-69
2022/07/18 04:20:48;;;;;;;1.05;0.95;;;18.40;59.30;;;;;;5033729;28;20056;-66
2022/07/18 04:23:17;;;;;;;0.85;0.60;;;18.40;59.30;;;;;;5044374;28;20065;-65
2022/07/18 04:25:43;;;;;;;1.33;1.02;;;18.40;59.40;;;;;;5043956;28;20052;-69
2022/07/18 04:28:11;;;;;;;1.60;0.85;;;18.50;59.60;;;;;;5042814;28;20061;-66
2022/07/18 04:30:38;;;;;;;1.08;0.85;;;18.50;59.70;;;;;;5055795;28;20029;-69
2022/07/18 04:33:05;;;;;;;0.90;0.68;;;18.50;59.60;;;;;;5045373;28;20150;-66
2022/07/18 04:35:32;;;;;;;1.23;0.82;;;18.50;59.60;;;;;;5047164;28;20020;-66
2022/07/18 04:37:58;;;;;;;1.08;0.88;;;18.50;59.70;;;;;;5043987;28;20116;-65
2022/07/18 04:40:23;;;;;;;0.68;0.68;;;18.60;59.80;;;;;;5037994;28;20163;-65
2022/07/18 04:42:50;;;;;;;1.90;1.15;;;18.70;59.90;;;;;;5035820;28;20037;-65
2022/07/18 04:45:18;;;;;;;0.77;0.77;;;18.70;59.90;;;;;;5043460;28;20126;-69
2022/07/18 04:47:43;;;;;;;0.70;0.60;;;18.80;59.80;;;;;;5038825;28;20047;-65
2022/07/18 04:50:09;;;;;;;1.05;0.75;;;18.80;59.80;;;;;;5043839;28;20460;-65
2022/07/18 04:52:40;;;;;;;0.57;0.57;;;18.90;59.80;;;;;;5041647;28;20052;-69
2022/07/18 04:55:08;;;;;;;0.60;0.60;;;18.90;59.90;;;;;;5038197;28;20021;-65
2022/07/18 04:57:34;;;;;;;0.55;0.55;;;19.00;60.00;;;;;;5040189;28;20279;-66
2022/07/18 05:00:00;;;;;;;0.57;0.57;;;19.10;60.00;;;;;;5045387;28;20032;-67
2022/07/18 05:02:26;;;;;;;1.05;0.90;;;19.10;60.00;;;;;;5043057;28;20056;-66
2022/07/18 05:04:52;;;;;;;0.70;0.70;;;19.20;60.00;;;;;;5036285;28;21791;-68
2022/07/18 05:07:17;;;;;;;1.23;0.90;;;19.30;60.00;;;;;;5037183;28;20797;-68
2022/07/18 05:09:43;;;;;;;0.63;0.50;;;19.30;59.90;;;;;;5040929;28;20042;-68
2022/07/18 05:12:09;;;;;;;0.90;0.60;;;19.40;60.50;;;;;;5040652;28;20033;-68
2022/07/18 05:14:35;;;;;;;0.50;0.50;;;19.50;59.90;;;;;;5044409;28;20033;-65
2022/07/18 05:17:01;;;;;;;0.50;0.50;;;19.60;59.80;;;;;;5046519;28;20033;-65
2022/07/18 05:19:27;;;;;;;0.80;0.50;;;19.70;59.70;;;;;;5043395;28;20484;-65
2022/07/18 05:21:52;;;;;;;1.35;0.80;;;19.80;59.40;;;;;;5044414;28;20393;-66
2022/07/18 05:24:18;;;;;;;1.27;0.88;;;19.90;59.20;;;;;;5046133;28;20051;-65
2022/07/18 05:26:47;;;;;;;3.13;0.50;;;20.00;59.00;;;;;;5041681;28;20438;-66
2022/07/18 05:29:13;;;;;;;0.52;0.52;;;20.10;58.70;;;;;;5037969;28;20033;-69
2022/07/18 05:31:42;;;;;;;0.82;0.82;;;20.20;58.50;;;;;;5036749;28;20515;-68
2022/07/18 05:34:08;;;;;;;1.60;1.27;;;20.30;58.20;;;;;;5041411;28;20025;-68
2022/07/18 05:36:34;;;;;;;1.00;0.82;;;20.40;57.80;;;;;;5036090;28;20052;-68
2022/07/18 05:39:00;;;;;;;1.35;0.82;;;20.40;57.40;;;;;;5041580;28;20036;-65
2022/07/18 05:41:27;;;;;;;0.50;0.50;;;20.40;57.30;;;;;;5057342;28;20033;-65
2022/07/18 05:43:53;;;;;;;1.23;0.82;;;20.40;57.40;;;;;;5043816;28;20043;-65
2022/07/18 05:46:18;;;;;;;1.48;1.08;;;20.40;57.40;;;;;;5044096;28;20030;-68
2022/07/18 05:48:45;;;;;;;0.60;0.60;;;20.40;58.00;;;;;;5038990;28;20143;-69
2022/07/18 05:51:11;;;;;;;1.08;0.98;;;20.40;57.40;;;;;;5030338;28;20235;-68
2022/07/18 05:53:37;;;;;;;1.67;1.05;;;20.40;57.50;;;;;;5045085;28;20107;-65
2022/07/18 05:56:03;;;;;;;0.75;0.60;;;20.40;57.50;;;;;;5059590;28;20697;-65
2022/07/18 05:58:28;;;;;;;3.08;1.20;;;20.40;57.60;;;;;;5057563;28;20258;-64
2022/07/18 06:01:16;;;;;;;0.98;0.60;;;20.40;57.80;;;;;;5050397;28;20391;-65
2022/07/18 06:03:42;;;;;;;2.30;0.95;;;20.40;57.70;;;;;;5062593;28;20127;-65
2022/07/18 06:06:08;;;;;;;1.23;1.00;;;20.50;57.50;;;;;;5063288;28;21194;-65
2022/07/18 06:08:34;;;;;;;1.42;0.90;;;20.60;57.20;;;;;;5052448;28;20033;-65
2022/07/18 06:11:00;;;;;;;1.90;1.40;;;20.70;56.80;;;;;;5052432;28;20491;-65
2022/07/18 06:13:25;;;;;;;1.45;1.05;;;20.80;56.40;;;;;;5042235;28;20116;-65
2022/07/18 06:15:51;;;;;;;1.90;1.38;;;20.90;56.00;;;;;;5050387;28;20456;-68
2022/07/18 06:18:17;;;;;;;1.48;0.70;;;21.00;55.70;;;;;;5054353;28;20091;-68
2022/07/18 06:20:42;;;;;;;1.35;0.80;;;21.10;55.50;;;;;;5062879;28;20588;-68
2022/07/18 06:23:08;;;;;;;2.50;1.40;;;21.20;55.30;;;;;;5047627;28;20124;-65
2022/07/18 06:25:34;;;;;;;0.70;0.70;;;21.20;55.10;;;;;;5066191;28;20039;-65
2022/07/18 06:27:59;;;;;;;1.98;1.13;;;21.30;55.10;;;;;;5052402;28;20078;-68
2022/07/18 06:30:25;;;;;;;7.63;1.25;;;21.30;55.00;;;;;;5054569;28;20026;-68
2022/07/18 06:32:51;;;;;;;0.82;0.50;;;21.30;54.90;;;;;;5056872;28;20033;-65
2022/07/18 06:35:16;;;;;;;1.35;1.08;;;21.40;54.70;;;;;;5054710;28;20159;-65
2022/07/18 06:37:42;;;;;;;7.13;1.35;;;21.60;54.60;;;;;;5051565;28;20028;-68
2022/07/18 06:40:08;;;;;;;2.25;1.10;;;21.70;54.40;;;;;;5057301;28;20063;-68
2022/07/18 06:42:34;;;;;;;0.85;0.77;;;21.80;54.20;;;;;;5046616;28;20623;-69
2022/07/18 06:45:00;;;;;;;1.25;0.75;;;21.90;53.90;;;;;;5061880;28;20021;-65
2022/07/18 06:47:25;;;;;;;1.08;0.98;;;22.00;53.60;;;;;;5043836;28;20486;-65
2022/07/18 06:49:51;;;;;;;0.82;0.77;;;22.10;53.40;;;;;;5069034;28;20024;-65
2022/07/18 06:52:22;;;;;;;3.20;1.08;;;22.20;53.40;;;;;;5057053;28;20076;-66
2022/07/18 06:54:48;;;;;;;0.80;0.75;;;22.30;53.20;;;;;;5039947;28;20036;-66
2022/07/18 06:57:14;;;;;;;1.27;0.98;;;22.40;53.10;;;;;;5060853;28;20765;-66
2022/07/18 06:59:39;;;;;;;2.90;0.88;;;22.50;52.90;;;;;;5037337;28;20346;-66
2022/07/18 07:02:05;;;;;;;1.45;0.90;;;22.60;52.80;;;;;;5044190;28;20464;-70
2022/07/18 07:04:31;;;;;;;1.35;1.10;;;22.60;52.60;;;;;;5040814;28;20053;-67
2022/07/18 07:06:57;;;;;;;2.70;0.70;;;22.70;52.50;;;;;;5041609;28;20095;-66
2022/07/18 07:09:22;;;;;;;5.20;0.90;;;22.80;52.30;;;;;;5038553;28;20146;-65
2022/07/18 07:11:48;;;;;;;0.80;0.70;;;22.80;51.90;;;;;;5020351;28;20304;-65
2022/07/18 07:14:14;;;;;;;1.65;0.75;;;22.90;51.90;;;;;;5040176;28;20044;-66
2022/07/18 07:16:39;;;;;;;0.93;0.75;;;23.00;51.80;;;;;;5063282;28;20525;-70
2022/07/18 07:19:05;;;;;;;0.65;0.65;;;23.10;51.70;;;;;;5048643;28;20423;-70
2022/07/18 07:21:31;;;;;;;14.63;1.35;;;23.20;51.60;;;;;;5050368;28;20034;-71
2022/07/18 07:23:56;;;;;;;1.10;0.95;;;23.30;51.40;;;;;;5047896;28;20029;-70
2022/07/18 07:26:22;;;;;;;1.55;1.00;;;23.40;51.90;;;;;;5047352;28;20139;-70
2022/07/18 07:28:47;;;;;;;1.45;1.35;;;23.50;51.10;;;;;;5043684;28;20120;-70
2022/07/18 07:31:13;;;;;;;4.45;0.90;;;23.60;50.80;;;;;;5043495;28;20040;-70
2022/07/18 07:33:39;;;;;;;1.95;0.70;;;23.70;50.70;;;;;;5046027;28;20096;-71
2022/07/18 07:36:05;;;;;;;0.77;0.73;;;23.80;50.20;;;;;;5035725;28;20100;-70
2022/07/18 07:38:31;;;;;;;1.55;0.68;;;23.90;50.10;;;;;;5046811;28;20033;-70
2022/07/18 07:40:57;;;;;;;1.17;0.88;;;24.00;49.80;;;;;;5059636;28;20561;-70
2022/07/18 07:43:24;;;;;;;1.15;0.70;;;24.10;49.50;;;;;;5050578;28;20067;-70
2022/07/18 07:45:52;;;;;;;0.68;0.68;;;24.20;49.50;;;;;;5046538;28;20029;-70
2022/07/18 07:48:19;;;;;;;3.22;0.73;;;24.20;49.30;;;;;;5034017;28;20210;-66
2022/07/18 07:50:44;;;;;;;1.40;1.25;;;24.30;49.40;;;;;;5042471;28;20095;-66
2022/07/18 07:53:10;;;;;;;0.57;0.57;;;24.40;49.40;;;;;;5047592;28;20418;-67
2022/07/18 07:55:36;;;;;;;0.90;0.88;;;24.50;49.40;;;;;;5044337;28;20037;-66
2022/07/18 07:58:04;;;;;;;1.05;0.73;;;24.60;49.20;;;;;;5060053;28;20029;-66
2022/07/18 08:00:31;;;;;;;5.63;1.13;;;24.80;48.80;;;;;;5050429;28;20059;-70
2022/07/18 08:03:02;;;;;;;3.15;0.68;;;24.90;48.60;;;;;;5050751;28;20059;-69
2022/07/18 08:05:30;;;;;;;0.63;0.57;;;25.00;48.20;;;;;;5064933;28;20026;-70
2022/07/18 08:07:57;;;;;;;1.25;0.50;;;25.00;48.30;;;;;;5045867;28;20025;-67
2022/07/18 08:10:23;;;;;;;0.60;0.60;;;25.10;48.30;;;;;;5052440;28;20090;-66
2022/07/18 08:12:49;;;;;;;1.02;0.57;;;25.20;48.20;;;;;;5058424;28;20306;-66
2022/07/18 08:15:15;;;;;;;0.90;0.73;;;25.30;48.20;;;;;;5048186;28;20091;-66
2022/07/18 08:17:41;;;;;;;1.42;0.95;;;25.40;47.90;;;;;;5064249;28;20104;-66
2022/07/18 08:20:08;;;;;;;0.70;0.70;;;25.50;47.90;;;;;;5053013;28;20032;-71
2022/07/18 08:22:34;;;;;;;2.15;1.00;;;25.60;47.70;;;;;;5056943;28;20404;-70
2022/07/18 08:25:00;;;;;;;0.73;0.57;;;25.80;47.70;;;;;;5044170;28;20732;-65
2022/07/18 08:27:26;;;;;;;2.85;0.90;;;25.90;47.50;;;;;;5048760;28;20036;-65
2022/07/18 08:29:52;;;;;;;0.70;0.68;;;26.00;46.30;;;;;;5044067;28;20106;-65
2022/07/18 08:32:17;;;;;;;0.85;0.80;;;26.10;46.40;;;;;;5043646;28;20036;-65
2022/07/18 08:34:43;;;;;;;0.60;0.60;;;26.20;46.20;;;;;;5047321;28;20025;-65
2022/07/18 08:37:09;;;;;;;1.33;0.70;;;26.30;45.40;;;;;;5044767;28;20041;-65
2022/07/18 08:39:35;;;;;;;0.68;0.68;;;26.40;45.00;;;;;;5049148;28;20044;-71
2022/07/18 08:42:01;;;;;;;0.85;0.68;;;26.50;45.20;;;;;;5049882;28;20033;-70
2022/07/18 08:44:32;;;;;;;0.63;0.60;;;26.60;45.30;;;;;;5048408;28;20484;-70
2022/07/18 08:47:09;;;;;;;0.80;0.80;;;26.60;45.20;;;;;;5047226;28;20064;-71
2022/07/18 08:49:45;;;;;;;2.47;0.75;;;26.80;44.50;;;;;;5046948;28;20131;-66
2022/07/18 08:52:11;;;;;;;0.85;0.70;;;26.80;43.70;;;;;;5041236;28;20028;-66
2022/07/18 08:54:37;;;;;;;0.52;0.52;;;26.90;43.30;;;;;;5043881;28;20025;-66
2022/07/18 08:57:03;;;;;;;0.65;0.65;;;27.00;43.10;;;;;;5056099;28;20035;-65
2022/07/18 08:59:28;;;;;;;0.50;0.50;;;27.10;43.50;;;;;;5044834;28;20381;-65
2022/07/18 09:01:54;;;;;;;1.70;1.02;;;27.20;43.10;;;;;;5044440;28;20416;-65
2022/07/18 09:04:46;;;;;;;1.48;1.10;;;27.30;43.30;;;;;;5044377;28;20040;-65
2022/07/18 09:07:27;;;;;;;1.95;0.70;;;27.40;43.40;;;;;;5041708;28;21771;-65
2022/07/18 09:09:58;;;;;;;0.38;0.30;;;27.50;43.00;;;;;;5040041;28;20583;-65
2022/07/18 09:12:30;;;;;;;0.70;0.70;;;27.50;42.80;;;;;;5043344;28;20144;-66
2022/07/18 09:14:57;;;;;;;1.20;0.75;;;27.60;42.60;;;;;;5042139;28;20033;-66
2022/07/18 09:17:44;;;;;;;0.60;0.60;;;27.70;42.90;;;;;;5047565;28;20037;-65
2022/07/18 09:20:15;;;;;;;0.80;0.60;;;27.70;42.60;;;;;;5037044;28;20040;-63
2022/07/18 09:22:48;;;;;;;3.17;1.02;;;27.90;42.40;;;;;;5057475;28;21425;-63
2022/07/18 09:25:24;;;;;;;0.57;0.57;;;28.00;41.80;;;;;;5035185;28;20483;-64
2022/07/18 09:27:53;;;;;;;0.80;0.80;;;28.10;41.60;;;;;;5038324;28;20086;-63
2022/07/18 09:30:35;;;;;;;0.57;0.52;;;28.30;41.10;;;;;;5059982;28;20029;-64
2022/07/18 09:33:03;;;;;;;0.90;0.88;;;28.30;40.10;;;;;;5055111;28;20063;-63
2022/07/18 09:35:33;;;;;;;2.72;0.85;;;28.40;40.10;;;;;;5039974;28;20049;-66
2022/07/18 09:37:59;;;;;;;0.50;0.50;;;28.60;39.10;;;;;;5033302;28;20109;-64
2022/07/18 09:40:42;;;;;;;0.60;0.60;;;28.70;38.80;;;;;;5027039;28;20025;-63
2022/07/18 09:43:10;;;;;;;1.05;0.55;;;28.90;38.20;;;;;;5029518;28;21242;-63
2022/07/18 09:45:42;;;;;;;0.60;0.60;;;29.00;38.30;;;;;;5056149;28;20048;-63
2022/07/18 09:48:10;;;;;;;1.00;0.90;;;29.10;38.20;;;;;;5036470;28;20067;-63
2022/07/18 09:51:06;;;;;;;0.60;0.50;;;29.20;38.20;;;;;;5045568;28;20028;-63
2022/07/18 09:53:35;;;;;;;1.15;0.95;;;29.30;38.10;;;;;;5037835;28;20043;-63
2022/07/18 09:56:06;;;;;;;1.85;0.60;;;29.50;36.70;;;;;;5042047;28;20028;-64
2022/07/18 09:58:35;;;;;;;0.73;0.55;;;29.70;37.20;;;;;;5040316;28;20040;-66
2022/07/18 10:01:03;;;;;;;0.70;0.60;;;29.80;37.20;;;;;;5041600;28;20056;-66
2022/07/18 10:03:29;;;;;;;1.15;1.05;;;29.80;36.50;;;;;;5042166;28;20243;-66
2022/07/18 10:05:57;;;;;;;0.52;0.52;;;29.90;36.40;;;;;;5051820;28;20400;-64
2022/07/18 10:08:28;;;;;;;1.02;0.73;;;30.00;36.60;;;;;;5048640;28;20057;-63
2022/07/18 10:10:56;;;;;;;1.02;0.50;;;30.00;35.50;;;;;;5048753;28;20102;-64
2022/07/18 10:13:23;;;;;;;1.20;0.80;;;29.80;35.60;;;;;;5039419;28;20083;-64
2022/07/18 10:15:50;;;;;;;0.70;0.70;;;29.70;35.80;;;;;;5041039;28;20048;-64
2022/07/18 10:18:22;;;;;;;1.20;0.73;;;29.50;36.00;;;;;;5055672;28;20353;-63
2022/07/18 10:20:57;;;;;;;0.95;0.70;;;29.40;36.30;;;;;;5037905;28;20289;-65
2022/07/18 10:23:33;;;;;;;0.57;0.57;;;29.40;36.70;;;;;;5038872;28;20033;-65
2022/07/18 10:26:06;;;;;;;0.73;0.73;;;29.50;36.60;;;;;;5046496;28;20025;-65
2022/07/18 10:28:31;;;;;;;0.77;0.77;;;29.70;36.90;;;;;;5049002;28;20064;-65
2022/07/18 10:31:14;;;;;;;0.60;0.60;;;29.90;36.00;;;;;;5042109;28;20041;-65
2022/07/18 10:33:47;;;;;;;0.77;0.70;;;30.20;35.70;;;;;;5036225;28;20108;-66
2022/07/18 10:36:16;;;;;;;0.57;0.57;;;30.40;35.40;;;;;;5035155;28;20033;-65
2022/07/18 10:39:07;;;;;;;0.70;0.63;;;30.70;35.00;;;;;;5032237;28;20032;-66
2022/07/18 10:41:57;;;;;;;1.45;0.90;;;30.90;35.30;;;;;;5035082;28;20052;-66
2022/07/18 10:44:29;;;;;;;0.60;0.60;;;31.10;35.50;;;;;;5034882;28;20480;-65
2022/07/18 10:47:12;;;;;;;;;;;31.20;35.00;;;;;;5038427;28;20483;-65
2022/07/18 10:50:03;;;;;;;1.20;0.70;;;31.40;35.10;;;;;;5038487;28;19933;-66
2022/07/18 10:52:32;;;;;;;0.70;0.65;;;31.50;34.30;;;;;;5032570;28;20045;-66
2022/07/18 10:57:40;;;;;;;0.98;0.60;;;31.30;34.90;;;;;;5041297;28;20377;-66
2022/07/18 11:00:14;;;;;;;0.60;0.60;;;31.40;35.00;;;;;;5037051;28;20084;-66
2022/07/18 11:02:46;;;;;;;1.02;0.80;;;31.50;34.40;;;;;;5035515;28;20092;-66
2022/07/18 11:05:24;;;;;;;0.60;0.60;;;31.70;34.50;;;;;;5037505;28;20030;-66
2022/07/18 11:08:01;;;;;;;0.80;0.80;;;31.90;34.10;;;;;;5036572;28;20037;-66
2022/07/18 11:10:44;;;;;;;0.55;0.50;;;32.00;34.40;;;;;;5044017;28;20111;-66
2022/07/18 11:13:25;;;;;;;0.65;0.50;;;32.20;34.30;;;;;;5033696;28;20722;-67
2022/07/18 11:16:14;;;;;;;1.07;0.97;;;32.40;34.30;;;;;;5047043;28;20284;-66
2022/07/18 11:18:39;;;;;;;0.50;0.50;;;32.70;33.60;;;;;;5043413;28;20301;-66
2022/07/18 11:21:24;;;;;;;0.75;0.70;;;32.80;33.50;;;;;;5045886;28;20025;-66
2022/07/18 11:24:09;;;;;;;0.52;0.52;;;33.00;33.70;;;;;;5038426;28;20667;-65
2022/07/18 11:26:37;;;;;;;0.60;0.60;;;33.10;32.90;;;;;;5039571;28;20384;-65
2022/07/18 11:29:05;;;;;;;0.98;0.88;;;33.20;33.30;;;;;;5043788;28;20029;-66
2022/07/18 11:31:32;;;;;;;0.90;0.90;;;33.30;33.10;;;;;;5046028;28;20029;-67
2022/07/18 11:34:01;;;;;;;0.80;0.80;;;33.30;32.00;;;;;;5056479;28;20074;-66
2022/07/18 11:36:32;;;;;;;0.77;0.77;;;33.30;32.00;;;;;;5049546;28;20104;-66
2022/07/18 11:39:02;;;;;;;0.65;0.60;;;33.30;31.90;;;;;;5040553;28;20021;-66
2022/07/18 11:41:31;;;;;;;0.43;0.43;;;33.40;31.80;;;;;;5040939;28;20571;-66
2022/07/18 11:43:57;;;;;;;1.73;0.90;;;33.40;31.80;;;;;;5043546;28;20284;-65
2022/07/18 11:46:26;;;;;;;0.82;0.82;;;33.50;32.10;;;;;;5045895;28;20047;-65
2022/07/18 11:48:59;;;;;;;0.73;0.68;;;33.60;31.80;;;;;;5047024;28;20044;-66
2022/07/18 11:51:24;;;;;;;0.65;0.65;;;33.60;31.40;;;;;;5038192;28;20387;-66
2022/07/18 11:53:53;;;;;;;0.98;0.60;;;33.70;31.30;;;;;;5049085;28;20123;-66
2022/07/18 11:56:21;;;;;;;1.08;1.00;;;33.80;30.90;;;;;;5043720;28;20453;-65
2022/07/18 11:58:49;;;;;;;0.80;0.77;;;33.80;31.20;;;;;;5046856;28;20068;-66
2022/07/18 12:01:15;;;;;;;0.80;0.75;;;33.80;31.20;;;;;;5041567;28;20029;-65
2022/07/18 12:03:55;;;;;;;0.80;0.80;;;34.00;30.60;;;;;;5046176;28;20056;-66
2022/07/18 12:06:23;;;;;;;1.27;0.68;;;34.10;30.20;;;;;;5044909;28;20086;-66
2022/07/18 12:08:51;;;;;;;0.90;0.90;;;34.30;30.40;;;;;;5046779;28;20460;-66
2022/07/18 12:11:34;;;;;;;2.25;0.90;;;34.50;30.00;;;;;;5041420;28;21197;-66
2022/07/18 12:14:07;;;;;;;1.20;0.80;;;34.50;29.40;;;;;;5043797;28;20029;-66
2022/07/18 12:16:57;;;;;;;1.13;0.60;;;34.50;29.70;;;;;;5040033;28;20122;-67
2022/07/18 12:19:39;;;;;;;1.38;0.90;;;34.50;30.00;;;;;;5040706;28;20030;-66
2022/07/18 12:22:12;;;;;;;;;;;34.60;29.80;;;;;;5041851;28;20037;-69
2022/07/18 12:24:41;;;;;;;0.65;0.65;;;34.70;29.90;;;;;;5043205;28;20130;-67
2022/07/18 12:27:19;;;;;;;0.75;0.70;;;34.90;30.00;;;;;;5026286;28;20067;-67
2022/07/18 12:29:54;;;;;;;0.80;0.55;;;35.10;30.00;;;;;;5048119;28;20472;-67
2022/07/18 12:32:24;;;;;;;0.60;0.60;;;35.20;29.50;;;;;;5044885;28;20838;-67
2022/07/18 12:35:00;;;;;;;1.42;0.63;;;35.20;29.60;;;;;;5039222;28;20045;-67
2022/07/18 12:37:27;;;;;;;0.90;0.90;;;35.40;30.00;;;;;;5034012;28;20053;-67
2022/07/18 12:40:02;;;;;;;1.17;1.08;;;35.50;29.40;;;;;;5035454;28;20124;-67
2022/07/18 12:42:34;;;;;;;0.73;0.73;;;35.50;29.70;;;;;;5035607;28;20037;-67
2022/07/18 12:45:00;;;;;;;0.80;0.80;;;35.40;29.40;;;;;;5041686;28;20037;-66
2022/07/18 12:47:26;;;;;;;0.70;0.70;;;35.40;29.20;;;;;;5039879;28;20243;-65
2022/07/18 12:49:52;;;;;;;1.30;0.95;;;35.60;29.40;;;;;;5041361;28;20467;-67
2022/07/18 12:52:19;;;;;;;0.80;0.80;;;35.70;28.80;;;;;;5063610;28;20559;-65
2022/07/18 12:54:45;;;;;;;2.42;1.35;;;35.80;29.00;;;;;;5037209;28;20503;-65
2022/07/18 12:57:11;;;;;;;0.80;0.80;;;35.90;29.10;;;;;;5035038;28;20538;-66
2022/07/18 12:59:37;;;;;;;1.25;1.00;;;36.10;29.40;;;;;;5035252;28;20030;-66